sensor_id;sensor_type;location;lat;lon;timestamp;P1;durP1;ratioP1;P2;durP2;ratioP2
4452;SDS011;2239;48.152;11.584;2022-08-19T00:01:27;1.37;;;0.70;;
4452;SDS011;2239;48.152;11.584;2022-08-19T00:03:55;1.60;;;1.07;;
4452;SDS011;2239;48.152;11.584;2022-08-19T00:06:25;1.73;;;0.90;;
4452;SDS011;2239;48.152;11.584;2022-08-19T00:08:52;1.85;;;1.25;;
4452;SDS011;2239;48.152;11.584;2022-08-19T00:11:18;1.00;;;0.87;;
4452;SDS011;2239;48.152;11.584;2022-08-19T00:13:45;1.73;;;1.10;;
4452;SDS011;2239;48.152;11.584;2022-08-19T00:16:13;1.13;;;0.80;;
4452;SDS011;2239;48.152;11.584;2022-08-19T00:18:40;1.70;;;1.10;;
4452;SDS011;2239;48.152;11.584;2022-08-19T00:21:06;1.58;;;0.90;;
4452;SDS011;2239;48.152;11.584;2022-08-19T00:23:34;3.03;;;1.23;;
4452;SDS011;2239;48.152;11.584;2022-08-19T00:26:02;1.37;;;1.03;;
4452;SDS011;2239;48.152;11.584;2022-08-19T00:28:29;3.30;;;1.00;;
4452;SDS011;2239;48.152;11.584;2022-08-19T00:30:55;2.97;;;1.10;;
4452;SDS011;2239;48.152;11.584;2022-08-19T00:33:21;1.10;;;0.93;;
4452;SDS011;2239;48.152;11.584;2022-08-19T00:35:47;1.30;;;1.00;;
4452;SDS011;2239;48.152;11.584;2022-08-19T00:38:13;1.43;;;1.03;;
4452;SDS011;2239;48.152;11.584;2022-08-19T00:40:39;1.20;;;1.03;;
4452;SDS011;2239;48.152;11.584;2022-08-19T00:43:08;2.40;;;1.00;;
4452;SDS011;2239;48.152;11.584;2022-08-19T00:45:38;1.80;;;1.20;;
4452;SDS011;2239;48.152;11.584;2022-08-19T00:48:07;3.10;;;1.33;;
4452;SDS011;2239;48.152;11.584;2022-08-19T00:50:34;1.90;;;1.10;;
4452;SDS011;2239;48.152;11.584;2022-08-19T00:53:00;4.60;;;1.70;;
4452;SDS011;2239;48.152;11.584;2022-08-19T00:55:29;1.20;;;0.83;;
4452;SDS011;2239;48.152;11.584;2022-08-19T00:58:04;1.07;;;0.93;;
4452;SDS011;2239;48.152;11.584;2022-08-19T01:00:33;2.83;;;2.00;;
4452;SDS011;2239;48.152;11.584;2022-08-19T01:03:02;2.60;;;1.38;;
4452;SDS011;2239;48.152;11.584;2022-08-19T01:05:30;2.60;;;1.60;;
4452;SDS011;2239;48.152;11.584;2022-08-19T01:07:56;2.50;;;1.47;;
4452;SDS011;2239;48.152;11.584;2022-08-19T01:10:26;1.30;;;1.20;;
4452;SDS011;2239;48.152;11.584;2022-08-19T01:12:54;3.80;;;2.00;;
4452;SDS011;2239;48.152;11.584;2022-08-19T01:15:22;3.03;;;1.40;;
4452;SDS011;2239;48.152;11.584;2022-08-19T01:17:56;1.37;;;1.00;;
4452;SDS011;2239;48.152;11.584;2022-08-19T01:20:24;4.30;;;1.90;;
4452;SDS011;2239;48.152;11.584;2022-08-19T01:22:55;2.67;;;1.43;;
4452;SDS011;2239;48.152;11.584;2022-08-19T01:25:27;1.60;;;1.33;;
4452;SDS011;2239;48.152;11.584;2022-08-19T01:27:57;4.43;;;2.10;;
4452;SDS011;2239;48.152;11.584;2022-08-19T01:30:26;2.30;;;1.30;;
4452;SDS011;2239;48.152;11.584;2022-08-19T01:32:55;2.70;;;1.30;;
4452;SDS011;2239;48.152;11.584;2022-08-19T01:35:22;3.43;;;1.70;;
4452;SDS011;2239;48.152;11.584;2022-08-19T01:37:51;2.67;;;1.60;;
4452;SDS011;2239;48.152;11.584;2022-08-19T01:40:20;2.43;;;1.40;;
4452;SDS011;2239;48.152;11.584;2022-08-19T01:42:48;3.33;;;1.67;;
4452;SDS011;2239;48.152;11.584;2022-08-19T01:45:14;2.47;;;1.30;;
4452;SDS011;2239;48.152;11.584;2022-08-19T01:47:40;3.15;;;1.73;;
4452;SDS011;2239;48.152;11.584;2022-08-19T01:50:08;4.50;;;1.70;;
4452;SDS011;2239;48.152;11.584;2022-08-19T01:52:36;3.07;;;1.27;;
4452;SDS011;2239;48.152;11.584;2022-08-19T01:55:04;6.93;;;1.53;;
4452;SDS011;2239;48.152;11.584;2022-08-19T01:57:32;4.17;;;1.50;;
4452;SDS011;2239;48.152;11.584;2022-08-19T01:59:58;4.77;;;1.50;;
4452;SDS011;2239;48.152;11.584;2022-08-19T02:02:25;3.90;;;1.90;;
4452;SDS011;2239;48.152;11.584;2022-08-19T02:04:51;2.90;;;1.33;;
4452;SDS011;2239;48.152;11.584;2022-08-19T02:07:19;5.30;;;1.73;;
4452;SDS011;2239;48.152;11.584;2022-08-19T02:09:46;3.67;;;1.80;;
4452;SDS011;2239;48.152;11.584;2022-08-19T02:12:13;2.47;;;1.30;;
4452;SDS011;2239;48.152;11.584;2022-08-19T02:14:39;2.25;;;1.38;;
4452;SDS011;2239;48.152;11.584;2022-08-19T02:17:05;2.65;;;1.42;;
4452;SDS011;2239;48.152;11.584;2022-08-19T02:19:31;2.37;;;1.40;;
4452;SDS011;2239;48.152;11.584;2022-08-19T02:22:00;1.80;;;1.30;;
4452;SDS011;2239;48.152;11.584;2022-08-19T02:24:26;2.17;;;1.20;;
4452;SDS011;2239;48.152;11.584;2022-08-19T02:26:52;1.33;;;1.23;;
4452;SDS011;2239;48.152;11.584;2022-08-19T02:29:18;4.33;;;2.33;;
4452;SDS011;2239;48.152;11.584;2022-08-19T02:31:45;3.40;;;1.70;;
4452;SDS011;2239;48.152;11.584;2022-08-19T02:34:11;3.37;;;1.63;;
4452;SDS011;2239;48.152;11.584;2022-08-19T02:36:36;2.27;;;1.50;;
4452;SDS011;2239;48.152;11.584;2022-08-19T02:39:02;3.53;;;1.30;;
4452;SDS011;2239;48.152;11.584;2022-08-19T02:41:29;2.83;;;1.17;;
4452;SDS011;2239;48.152;11.584;2022-08-19T02:43:57;1.60;;;1.30;;
4452;SDS011;2239;48.152;11.584;2022-08-19T02:46:25;2.30;;;1.50;;
4452;SDS011;2239;48.152;11.584;2022-08-19T02:48:56;1.63;;;0.90;;
4452;SDS011;2239;48.152;11.584;2022-08-19T02:51:37;3.00;;;1.70;;
4452;SDS011;2239;48.152;11.584;2022-08-19T02:54:05;2.10;;;1.43;;
4452;SDS011;2239;48.152;11.584;2022-08-19T02:56:33;1.70;;;1.08;;
4452;SDS011;2239;48.152;11.584;2022-08-19T02:59:00;2.40;;;1.40;;
4452;SDS011;2239;48.152;11.584;2022-08-19T03:01:26;3.03;;;1.17;;
4452;SDS011;2239;48.152;11.584;2022-08-19T03:03:54;1.60;;;1.17;;
4452;SDS011;2239;48.152;11.584;2022-08-19T03:06:21;1.77;;;1.20;;
4452;SDS011;2239;48.152;11.584;2022-08-19T03:08:48;2.50;;;1.53;;
4452;SDS011;2239;48.152;11.584;2022-08-19T03:11:20;2.93;;;1.53;;
4452;SDS011;2239;48.152;11.584;2022-08-19T03:13:50;2.80;;;1.23;;
4452;SDS011;2239;48.152;11.584;2022-08-19T03:16:17;2.03;;;0.90;;
4452;SDS011;2239;48.152;11.584;2022-08-19T03:18:44;3.17;;;1.47;;
4452;SDS011;2239;48.152;11.584;2022-08-19T03:21:14;3.87;;;0.97;;
4452;SDS011;2239;48.152;11.584;2022-08-19T03:23:41;1.67;;;1.23;;
4452;SDS011;2239;48.152;11.584;2022-08-19T03:26:06;2.20;;;1.20;;
4452;SDS011;2239;48.152;11.584;2022-08-19T03:28:33;2.40;;;1.40;;
4452;SDS011;2239;48.152;11.584;2022-08-19T03:31:18;2.97;;;1.70;;
4452;SDS011;2239;48.152;11.584;2022-08-19T03:33:47;3.20;;;1.43;;
4452;SDS011;2239;48.152;11.584;2022-08-19T03:36:15;2.43;;;1.00;;
4452;SDS011;2239;48.152;11.584;2022-08-19T03:38:47;2.33;;;1.30;;
4452;SDS011;2239;48.152;11.584;2022-08-19T03:41:16;1.87;;;1.10;;
4452;SDS011;2239;48.152;11.584;2022-08-19T03:43:44;1.20;;;1.10;;
4452;SDS011;2239;48.152;11.584;2022-08-19T03:46:14;2.10;;;1.20;;
4452;SDS011;2239;48.152;11.584;2022-08-19T03:48:42;3.07;;;1.00;;
4452;SDS011;2239;48.152;11.584;2022-08-19T03:51:18;3.00;;;1.00;;
4452;SDS011;2239;48.152;11.584;2022-08-19T03:53:49;1.97;;;1.03;;
4452;SDS011;2239;48.152;11.584;2022-08-19T03:56:17;2.53;;;1.43;;
4452;SDS011;2239;48.152;11.584;2022-08-19T03:58:44;1.73;;;1.13;;
4452;SDS011;2239;48.152;11.584;2022-08-19T04:01:11;1.30;;;1.10;;
4452;SDS011;2239;48.152;11.584;2022-08-19T04:03:40;1.35;;;1.10;;
4452;SDS011;2239;48.152;11.584;2022-08-19T04:06:12;2.20;;;1.20;;
4452;SDS011;2239;48.152;11.584;2022-08-19T04:08:40;2.23;;;1.30;;
4452;SDS011;2239;48.152;11.584;2022-08-19T04:11:10;2.23;;;1.23;;
4452;SDS011;2239;48.152;11.584;2022-08-19T04:13:38;1.87;;;1.10;;
4452;SDS011;2239;48.152;11.584;2022-08-19T04:16:04;2.80;;;1.90;;
4452;SDS011;2239;48.152;11.584;2022-08-19T04:18:31;1.43;;;0.90;;
4452;SDS011;2239;48.152;11.584;2022-08-19T04:20:58;1.83;;;1.20;;
4452;SDS011;2239;48.152;11.584;2022-08-19T04:23:24;3.40;;;1.10;;
4452;SDS011;2239;48.152;11.584;2022-08-19T04:25:50;3.50;;;1.75;;
4452;SDS011;2239;48.152;11.584;2022-08-19T04:28:16;2.67;;;1.43;;
4452;SDS011;2239;48.152;11.584;2022-08-19T04:30:46;3.90;;;1.33;;
4452;SDS011;2239;48.152;11.584;2022-08-19T04:33:17;3.10;;;1.33;;
4452;SDS011;2239;48.152;11.584;2022-08-19T04:35:47;1.30;;;1.20;;
4452;SDS011;2239;48.152;11.584;2022-08-19T04:38:15;3.35;;;1.30;;
4452;SDS011;2239;48.152;11.584;2022-08-19T04:40:51;2.17;;;1.30;;
4452;SDS011;2239;48.152;11.584;2022-08-19T04:43:35;3.00;;;1.43;;
4452;SDS011;2239;48.152;11.584;2022-08-19T04:46:07;3.13;;;1.47;;
4452;SDS011;2239;48.152;11.584;2022-08-19T04:48:35;3.27;;;1.80;;
4452;SDS011;2239;48.152;11.584;2022-08-19T04:51:05;1.55;;;1.15;;
4452;SDS011;2239;48.152;11.584;2022-08-19T04:53:33;2.00;;;1.10;;
4452;SDS011;2239;48.152;11.584;2022-08-19T04:56:04;1.77;;;1.20;;
4452;SDS011;2239;48.152;11.584;2022-08-19T04:58:35;2.47;;;1.47;;
4452;SDS011;2239;48.152;11.584;2022-08-19T05:01:03;3.03;;;1.60;;
4452;SDS011;2239;48.152;11.584;2022-08-19T05:03:30;4.50;;;1.87;;
4452;SDS011;2239;48.152;11.584;2022-08-19T05:06:04;1.47;;;1.10;;
4452;SDS011;2239;48.152;11.584;2022-08-19T05:08:32;1.27;;;0.90;;
4452;SDS011;2239;48.152;11.584;2022-08-19T05:11:01;2.70;;;1.80;;
4452;SDS011;2239;48.152;11.584;2022-08-19T05:13:32;5.23;;;1.13;;
4452;SDS011;2239;48.152;11.584;2022-08-19T05:15:58;2.63;;;1.70;;
4452;SDS011;2239;48.152;11.584;2022-08-19T05:18:25;2.73;;;1.40;;
4452;SDS011;2239;48.152;11.584;2022-08-19T05:21:12;1.80;;;1.27;;
4452;SDS011;2239;48.152;11.584;2022-08-19T05:23:59;1.40;;;1.17;;
4452;SDS011;2239;48.152;11.584;2022-08-19T05:26:26;3.33;;;1.48;;
4452;SDS011;2239;48.152;11.584;2022-08-19T05:28:52;3.10;;;1.73;;
4452;SDS011;2239;48.152;11.584;2022-08-19T05:31:18;4.30;;;1.57;;
4452;SDS011;2239;48.152;11.584;2022-08-19T05:33:44;3.55;;;2.13;;
4452;SDS011;2239;48.152;11.584;2022-08-19T05:36:10;3.17;;;2.27;;
4452;SDS011;2239;48.152;11.584;2022-08-19T05:38:36;2.97;;;1.50;;
4452;SDS011;2239;48.152;11.584;2022-08-19T05:41:11;4.10;;;2.00;;
4452;SDS011;2239;48.152;11.584;2022-08-19T05:43:38;3.37;;;1.70;;
4452;SDS011;2239;48.152;11.584;2022-08-19T05:46:04;5.30;;;1.63;;
4452;SDS011;2239;48.152;11.584;2022-08-19T05:48:31;1.17;;;1.07;;
4452;SDS011;2239;48.152;11.584;2022-08-19T05:51:06;2.83;;;1.90;;
4452;SDS011;2239;48.152;11.584;2022-08-19T05:53:33;5.63;;;2.10;;
4452;SDS011;2239;48.152;11.584;2022-08-19T05:56:03;3.33;;;2.40;;
4452;SDS011;2239;48.152;11.584;2022-08-19T05:58:33;3.43;;;1.40;;
4452;SDS011;2239;48.152;11.584;2022-08-19T06:01:00;2.70;;;1.57;;
4452;SDS011;2239;48.152;11.584;2022-08-19T06:03:30;3.83;;;1.67;;
4452;SDS011;2239;48.152;11.584;2022-08-19T06:05:57;3.07;;;2.00;;
4452;SDS011;2239;48.152;11.584;2022-08-19T06:08:24;4.75;;;2.20;;
4452;SDS011;2239;48.152;11.584;2022-08-19T06:10:50;4.10;;;2.77;;
4452;SDS011;2239;48.152;11.584;2022-08-19T06:13:16;3.83;;;2.43;;
4452;SDS011;2239;48.152;11.584;2022-08-19T06:15:42;4.67;;;1.80;;
4452;SDS011;2239;48.152;11.584;2022-08-19T06:18:09;1.90;;;1.57;;
4452;SDS011;2239;48.152;11.584;2022-08-19T06:20:34;4.10;;;2.50;;
4452;SDS011;2239;48.152;11.584;2022-08-19T06:23:00;5.77;;;2.33;;
4452;SDS011;2239;48.152;11.584;2022-08-19T06:25:26;3.50;;;2.13;;
4452;SDS011;2239;48.152;11.584;2022-08-19T06:27:51;4.47;;;2.17;;
4452;SDS011;2239;48.152;11.584;2022-08-19T06:30:18;4.20;;;1.80;;
4452;SDS011;2239;48.152;11.584;2022-08-19T06:32:44;5.30;;;2.73;;
4452;SDS011;2239;48.152;11.584;2022-08-19T06:35:09;4.07;;;2.03;;
4452;SDS011;2239;48.152;11.584;2022-08-19T06:37:36;6.45;;;2.30;;
4452;SDS011;2239;48.152;11.584;2022-08-19T06:40:02;3.63;;;1.83;;
4452;SDS011;2239;48.152;11.584;2022-08-19T06:42:28;3.80;;;2.13;;
4452;SDS011;2239;48.152;11.584;2022-08-19T06:44:54;5.13;;;2.20;;
4452;SDS011;2239;48.152;11.584;2022-08-19T06:47:20;3.67;;;1.80;;
4452;SDS011;2239;48.152;11.584;2022-08-19T06:49:47;4.60;;;2.13;;
4452;SDS011;2239;48.152;11.584;2022-08-19T06:52:12;3.47;;;1.80;;
4452;SDS011;2239;48.152;11.584;2022-08-19T06:54:39;4.03;;;1.47;;
4452;SDS011;2239;48.152;11.584;2022-08-19T06:57:06;6.63;;;2.93;;
4452;SDS011;2239;48.152;11.584;2022-08-19T06:59:32;2.90;;;2.13;;
4452;SDS011;2239;48.152;11.584;2022-08-19T07:01:59;5.07;;;2.03;;
4452;SDS011;2239;48.152;11.584;2022-08-19T07:04:30;5.77;;;2.13;;
4452;SDS011;2239;48.152;11.584;2022-08-19T07:07:15;4.00;;;2.23;;
4452;SDS011;2239;48.152;11.584;2022-08-19T07:09:42;5.30;;;2.20;;
4452;SDS011;2239;48.152;11.584;2022-08-19T07:12:09;4.07;;;2.07;;
4452;SDS011;2239;48.152;11.584;2022-08-19T07:14:37;6.43;;;2.13;;
4452;SDS011;2239;48.152;11.584;2022-08-19T07:17:06;8.48;;;3.60;;
4452;SDS011;2239;48.152;11.584;2022-08-19T07:19:35;5.37;;;1.97;;
4452;SDS011;2239;48.152;11.584;2022-08-19T07:22:03;4.50;;;2.57;;
4452;SDS011;2239;48.152;11.584;2022-08-19T07:24:30;7.73;;;2.53;;
4452;SDS011;2239;48.152;11.584;2022-08-19T07:26:57;5.47;;;2.37;;
4452;SDS011;2239;48.152;11.584;2022-08-19T07:29:26;4.73;;;2.23;;
4452;SDS011;2239;48.152;11.584;2022-08-19T07:31:53;7.20;;;2.65;;
4452;SDS011;2239;48.152;11.584;2022-08-19T07:34:24;4.13;;;1.87;;
4452;SDS011;2239;48.152;11.584;2022-08-19T07:36:51;6.20;;;3.13;;
4452;SDS011;2239;48.152;11.584;2022-08-19T07:39:18;4.20;;;2.27;;
4452;SDS011;2239;48.152;11.584;2022-08-19T07:41:46;5.07;;;2.53;;
4452;SDS011;2239;48.152;11.584;2022-08-19T07:44:12;7.67;;;2.60;;
4452;SDS011;2239;48.152;11.584;2022-08-19T07:46:41;7.10;;;3.13;;
4452;SDS011;2239;48.152;11.584;2022-08-19T07:49:09;7.17;;;2.50;;
4452;SDS011;2239;48.152;11.584;2022-08-19T07:51:42;5.10;;;3.13;;
4452;SDS011;2239;48.152;11.584;2022-08-19T07:54:09;6.07;;;2.27;;
4452;SDS011;2239;48.152;11.584;2022-08-19T07:56:36;4.50;;;2.53;;
4452;SDS011;2239;48.152;11.584;2022-08-19T07:59:02;6.47;;;3.15;;
4452;SDS011;2239;48.152;11.584;2022-08-19T08:01:28;4.50;;;2.83;;
4452;SDS011;2239;48.152;11.584;2022-08-19T08:03:55;8.47;;;3.93;;
4452;SDS011;2239;48.152;11.584;2022-08-19T08:06:40;6.57;;;3.42;;
4452;SDS011;2239;48.152;11.584;2022-08-19T08:09:27;7.87;;;3.37;;
4452;SDS011;2239;48.152;11.584;2022-08-19T08:11:56;7.60;;;3.67;;
4452;SDS011;2239;48.152;11.584;2022-08-19T08:14:32;7.63;;;3.67;;
4452;SDS011;2239;48.152;11.584;2022-08-19T08:17:02;5.77;;;3.37;;
4452;SDS011;2239;48.152;11.584;2022-08-19T08:19:29;7.53;;;3.40;;
4452;SDS011;2239;48.152;11.584;2022-08-19T08:21:56;8.00;;;3.83;;
4452;SDS011;2239;48.152;11.584;2022-08-19T08:24:23;7.20;;;3.33;;
4452;SDS011;2239;48.152;11.584;2022-08-19T08:26:51;6.38;;;3.33;;
4452;SDS011;2239;48.152;11.584;2022-08-19T08:29:17;6.53;;;3.63;;
4452;SDS011;2239;48.152;11.584;2022-08-19T08:31:44;5.37;;;3.27;;
4452;SDS011;2239;48.152;11.584;2022-08-19T08:34:11;6.90;;;3.73;;
4452;SDS011;2239;48.152;11.584;2022-08-19T08:36:39;6.00;;;3.10;;
4452;SDS011;2239;48.152;11.584;2022-08-19T08:39:08;6.17;;;3.67;;
4452;SDS011;2239;48.152;11.584;2022-08-19T08:41:37;8.03;;;3.60;;
4452;SDS011;2239;48.152;11.584;2022-08-19T08:44:06;4.60;;;2.70;;
4452;SDS011;2239;48.152;11.584;2022-08-19T08:52:00;6.83;;;3.53;;
4452;SDS011;2239;48.152;11.584;2022-08-19T08:54:52;9.00;;;4.23;;
4452;SDS011;2239;48.152;11.584;2022-08-19T09:00:10;8.27;;;3.60;;
4452;SDS011;2239;48.152;11.584;2022-08-19T09:02:42;5.50;;;2.90;;
4452;SDS011;2239;48.152;11.584;2022-08-19T09:05:09;8.30;;;4.70;;
4452;SDS011;2239;48.152;11.584;2022-08-19T09:12:50;5.40;;;2.83;;
4452;SDS011;2239;48.152;11.584;2022-08-19T09:15:21;6.80;;;3.10;;
4452;SDS011;2239;48.152;11.584;2022-08-19T09:17:53;6.97;;;3.38;;
4452;SDS011;2239;48.152;11.584;2022-08-19T09:20:20;10.23;;;3.60;;
4452;SDS011;2239;48.152;11.584;2022-08-19T09:22:48;5.80;;;2.80;;
4452;SDS011;2239;48.152;11.584;2022-08-19T09:25:18;7.37;;;2.97;;
4452;SDS011;2239;48.152;11.584;2022-08-19T09:27:47;6.40;;;2.43;;
4452;SDS011;2239;48.152;11.584;2022-08-19T09:30:15;7.40;;;3.80;;
4452;SDS011;2239;48.152;11.584;2022-08-19T09:32:43;4.50;;;2.53;;
4452;SDS011;2239;48.152;11.584;2022-08-19T09:35:10;7.33;;;2.80;;
4452;SDS011;2239;48.152;11.584;2022-08-19T09:37:37;5.17;;;2.73;;
4452;SDS011;2239;48.152;11.584;2022-08-19T09:40:03;5.00;;;2.80;;
4452;SDS011;2239;48.152;11.584;2022-08-19T09:42:29;6.90;;;3.03;;
4452;SDS011;2239;48.152;11.584;2022-08-19T09:44:55;10.43;;;4.50;;
4452;SDS011;2239;48.152;11.584;2022-08-19T09:47:21;8.43;;;3.20;;
4452;SDS011;2239;48.152;11.584;2022-08-19T09:49:46;6.50;;;3.30;;
4452;SDS011;2239;48.152;11.584;2022-08-19T09:52:14;4.27;;;2.77;;
4452;SDS011;2239;48.152;11.584;2022-08-19T09:54:41;6.67;;;3.20;;
4452;SDS011;2239;48.152;11.584;2022-08-19T09:57:07;8.23;;;3.33;;
4452;SDS011;2239;48.152;11.584;2022-08-19T09:59:32;6.10;;;3.27;;
4452;SDS011;2239;48.152;11.584;2022-08-19T10:01:58;6.87;;;2.93;;
4452;SDS011;2239;48.152;11.584;2022-08-19T10:04:24;6.37;;;2.90;;
4452;SDS011;2239;48.152;11.584;2022-08-19T10:07:10;4.40;;;2.47;;
4452;SDS011;2239;48.152;11.584;2022-08-19T10:09:36;9.87;;;2.77;;
4452;SDS011;2239;48.152;11.584;2022-08-19T10:12:02;6.43;;;3.10;;
4452;SDS011;2239;48.152;11.584;2022-08-19T10:14:29;7.63;;;2.90;;
4452;SDS011;2239;48.152;11.584;2022-08-19T10:16:56;4.05;;;2.20;;
4452;SDS011;2239;48.152;11.584;2022-08-19T10:19:22;6.33;;;3.03;;
4452;SDS011;2239;48.152;11.584;2022-08-19T10:21:47;4.87;;;2.50;;
4452;SDS011;2239;48.152;11.584;2022-08-19T10:24:13;6.33;;;2.80;;
4452;SDS011;2239;48.152;11.584;2022-08-19T10:26:39;4.03;;;2.20;;
4452;SDS011;2239;48.152;11.584;2022-08-19T10:29:10;4.77;;;2.47;;
4452;SDS011;2239;48.152;11.584;2022-08-19T10:31:36;6.90;;;2.47;;
4452;SDS011;2239;48.152;11.584;2022-08-19T10:34:02;4.90;;;3.13;;
4452;SDS011;2239;48.152;11.584;2022-08-19T10:36:30;6.57;;;2.60;;
4452;SDS011;2239;48.152;11.584;2022-08-19T10:38:59;7.73;;;3.03;;
4452;SDS011;2239;48.152;11.584;2022-08-19T10:41:28;4.20;;;2.30;;
4452;SDS011;2239;48.152;11.584;2022-08-19T10:43:59;6.10;;;2.60;;
4452;SDS011;2239;48.152;11.584;2022-08-19T10:46:27;4.70;;;2.43;;
4452;SDS011;2239;48.152;11.584;2022-08-19T10:48:56;4.03;;;2.30;;
4452;SDS011;2239;48.152;11.584;2022-08-19T10:51:21;7.60;;;2.90;;
4452;SDS011;2239;48.152;11.584;2022-08-19T10:54:06;5.30;;;2.47;;
4452;SDS011;2239;48.152;11.584;2022-08-19T10:56:33;6.37;;;2.57;;
4452;SDS011;2239;48.152;11.584;2022-08-19T11:01:52;4.17;;;2.50;;
4452;SDS011;2239;48.152;11.584;2022-08-19T11:04:19;4.57;;;1.83;;
4452;SDS011;2239;48.152;11.584;2022-08-19T11:06:46;5.60;;;2.87;;
4452;SDS011;2239;48.152;11.584;2022-08-19T11:09:16;5.63;;;2.63;;
4452;SDS011;2239;48.152;11.584;2022-08-19T11:11:44;4.80;;;2.40;;
4452;SDS011;2239;48.152;11.584;2022-08-19T11:14:11;3.70;;;1.90;;
4452;SDS011;2239;48.152;11.584;2022-08-19T11:16:39;4.27;;;2.70;;
4452;SDS011;2239;48.152;11.584;2022-08-19T11:19:06;5.27;;;2.27;;
4452;SDS011;2239;48.152;11.584;2022-08-19T11:21:35;3.15;;;1.90;;
4452;SDS011;2239;48.152;11.584;2022-08-19T11:24:07;3.83;;;2.38;;
4452;SDS011;2239;48.152;11.584;2022-08-19T11:26:36;4.00;;;1.90;;
4452;SDS011;2239;48.152;11.584;2022-08-19T11:29:04;4.50;;;1.80;;
4452;SDS011;2239;48.152;11.584;2022-08-19T11:31:32;5.17;;;2.77;;
4452;SDS011;2239;48.152;11.584;2022-08-19T11:34:01;4.53;;;1.93;;
4452;SDS011;2239;48.152;11.584;2022-08-19T11:36:29;5.57;;;2.03;;
4452;SDS011;2239;48.152;11.584;2022-08-19T11:38:57;2.43;;;1.63;;
4452;SDS011;2239;48.152;11.584;2022-08-19T11:41:23;1.53;;;1.43;;
4452;SDS011;2239;48.152;11.584;2022-08-19T11:43:50;1.63;;;1.00;;
4452;SDS011;2239;48.152;11.584;2022-08-19T11:46:20;2.20;;;1.30;;
4452;SDS011;2239;48.152;11.584;2022-08-19T11:48:48;1.80;;;1.07;;
4452;SDS011;2239;48.152;11.584;2022-08-19T11:51:15;1.90;;;1.10;;
4452;SDS011;2239;48.152;11.584;2022-08-19T11:53:43;2.73;;;0.97;;
4452;SDS011;2239;48.152;11.584;2022-08-19T11:56:10;2.30;;;1.25;;
4452;SDS011;2239;48.152;11.584;2022-08-19T11:58:36;1.10;;;0.80;;
4452;SDS011;2239;48.152;11.584;2022-08-19T12:01:07;1.90;;;0.87;;
4452;SDS011;2239;48.152;11.584;2022-08-19T12:03:33;2.70;;;1.30;;
4452;SDS011;2239;48.152;11.584;2022-08-19T12:06:03;3.80;;;1.20;;
4452;SDS011;2239;48.152;11.584;2022-08-19T12:08:30;1.20;;;1.03;;
4452;SDS011;2239;48.152;11.584;2022-08-19T12:10:56;1.47;;;1.00;;
4452;SDS011;2239;48.152;11.584;2022-08-19T12:13:22;1.53;;;0.93;;
4452;SDS011;2239;48.152;11.584;2022-08-19T12:15:47;0.93;;;0.70;;
4452;SDS011;2239;48.152;11.584;2022-08-19T12:18:13;0.83;;;0.60;;
4452;SDS011;2239;48.152;11.584;2022-08-19T12:20:39;1.10;;;0.60;;
4452;SDS011;2239;48.152;11.584;2022-08-19T12:23:06;1.23;;;0.80;;
4452;SDS011;2239;48.152;11.584;2022-08-19T12:25:34;0.67;;;0.60;;
4452;SDS011;2239;48.152;11.584;2022-08-19T12:28:01;1.90;;;0.83;;
4452;SDS011;2239;48.152;11.584;2022-08-19T12:30:27;1.07;;;0.80;;
4452;SDS011;2239;48.152;11.584;2022-08-19T12:32:53;0.90;;;0.70;;
4452;SDS011;2239;48.152;11.584;2022-08-19T12:35:18;0.83;;;0.50;;
4452;SDS011;2239;48.152;11.584;2022-08-19T12:37:47;1.00;;;0.90;;
4452;SDS011;2239;48.152;11.584;2022-08-19T12:40:15;1.20;;;0.70;;
4452;SDS011;2239;48.152;11.584;2022-08-19T12:42:42;1.03;;;0.60;;
4452;SDS011;2239;48.152;11.584;2022-08-19T12:45:09;1.33;;;0.83;;
4452;SDS011;2239;48.152;11.584;2022-08-19T12:47:39;1.33;;;0.90;;
4452;SDS011;2239;48.152;11.584;2022-08-19T12:50:05;1.00;;;0.70;;
4452;SDS011;2239;48.152;11.584;2022-08-19T12:52:33;0.77;;;0.63;;
4452;SDS011;2239;48.152;11.584;2022-08-19T12:55:06;0.93;;;0.67;;
4452;SDS011;2239;48.152;11.584;2022-08-19T12:57:32;0.90;;;0.70;;
4452;SDS011;2239;48.152;11.584;2022-08-19T13:00:04;1.63;;;0.67;;
4452;SDS011;2239;48.152;11.584;2022-08-19T13:02:35;0.90;;;0.70;;
4452;SDS011;2239;48.152;11.584;2022-08-19T13:05:01;1.03;;;0.97;;
4452;SDS011;2239;48.152;11.584;2022-08-19T13:07:27;0.80;;;0.60;;
4452;SDS011;2239;48.152;11.584;2022-08-19T13:09:53;3.73;;;1.00;;
4452;SDS011;2239;48.152;11.584;2022-08-19T13:12:18;1.20;;;0.80;;
4452;SDS011;2239;48.152;11.584;2022-08-19T13:14:45;1.53;;;0.80;;
4452;SDS011;2239;48.152;11.584;2022-08-19T13:17:14;1.10;;;0.80;;
4452;SDS011;2239;48.152;11.584;2022-08-19T13:19:40;0.70;;;0.70;;
4452;SDS011;2239;48.152;11.584;2022-08-19T13:22:06;1.53;;;1.00;;
4452;SDS011;2239;48.152;11.584;2022-08-19T13:24:32;0.70;;;0.70;;
4452;SDS011;2239;48.152;11.584;2022-08-19T13:26:58;0.80;;;0.60;;
4452;SDS011;2239;48.152;11.584;2022-08-19T13:29:25;0.60;;;0.50;;
4452;SDS011;2239;48.152;11.584;2022-08-19T13:32:10;0.70;;;0.70;;
4452;SDS011;2239;48.152;11.584;2022-08-19T13:34:54;1.00;;;0.60;;
4452;SDS011;2239;48.152;11.584;2022-08-19T13:37:20;0.60;;;0.50;;
4452;SDS011;2239;48.152;11.584;2022-08-19T13:40:06;1.43;;;0.70;;
4452;SDS011;2239;48.152;11.584;2022-08-19T13:42:37;1.20;;;0.60;;
4452;SDS011;2239;48.152;11.584;2022-08-19T13:45:06;0.80;;;0.60;;
4452;SDS011;2239;48.152;11.584;2022-08-19T13:47:33;0.90;;;0.77;;
4452;SDS011;2239;48.152;11.584;2022-08-19T13:50:00;1.30;;;0.70;;
4452;SDS011;2239;48.152;11.584;2022-08-19T13:52:27;1.30;;;0.80;;
4452;SDS011;2239;48.152;11.584;2022-08-19T13:54:54;0.60;;;0.50;;
4452;SDS011;2239;48.152;11.584;2022-08-19T13:57:19;0.90;;;0.57;;
4452;SDS011;2239;48.152;11.584;2022-08-19T13:59:45;1.10;;;0.87;;
4452;SDS011;2239;48.152;11.584;2022-08-19T14:02:11;0.90;;;0.63;;
4452;SDS011;2239;48.152;11.584;2022-08-19T14:04:36;1.27;;;0.90;;
4452;SDS011;2239;48.152;11.584;2022-08-19T14:07:02;0.80;;;0.70;;
4452;SDS011;2239;48.152;11.584;2022-08-19T14:09:29;1.30;;;0.70;;
4452;SDS011;2239;48.152;11.584;2022-08-19T14:11:55;1.40;;;0.80;;
4452;SDS011;2239;48.152;11.584;2022-08-19T14:14:20;1.23;;;0.90;;
4452;SDS011;2239;48.152;11.584;2022-08-19T14:16:46;3.30;;;0.73;;
4452;SDS011;2239;48.152;11.584;2022-08-19T14:19:13;1.63;;;0.98;;
4452;SDS011;2239;48.152;11.584;2022-08-19T14:21:39;1.80;;;0.87;;
4452;SDS011;2239;48.152;11.584;2022-08-19T14:24:06;1.30;;;0.90;;
4452;SDS011;2239;48.152;11.584;2022-08-19T14:26:32;1.10;;;0.93;;
4452;SDS011;2239;48.152;11.584;2022-08-19T14:28:58;0.73;;;0.70;;
4452;SDS011;2239;48.152;11.584;2022-08-19T14:31:24;1.67;;;0.83;;
4452;SDS011;2239;48.152;11.584;2022-08-19T14:33:51;1.10;;;1.00;;
4452;SDS011;2239;48.152;11.584;2022-08-19T14:36:17;1.30;;;0.83;;
4452;SDS011;2239;48.152;11.584;2022-08-19T14:38:44;1.77;;;0.77;;
4452;SDS011;2239;48.152;11.584;2022-08-19T14:43:44;2.83;;;1.20;;
4452;SDS011;2239;48.152;11.584;2022-08-19T14:46:16;2.03;;;1.00;;
4452;SDS011;2239;48.152;11.584;2022-08-19T14:48:47;1.47;;;1.00;;
4452;SDS011;2239;48.152;11.584;2022-08-19T14:51:14;2.70;;;0.90;;
4452;SDS011;2239;48.152;11.584;2022-08-19T14:53:41;2.33;;;1.00;;
4452;SDS011;2239;48.152;11.584;2022-08-19T14:56:07;1.48;;;1.17;;
4452;SDS011;2239;48.152;11.584;2022-08-19T14:58:34;1.07;;;0.70;;
4452;SDS011;2239;48.152;11.584;2022-08-19T15:01:00;1.90;;;1.03;;
4452;SDS011;2239;48.152;11.584;2022-08-19T15:03:26;1.97;;;1.50;;
4452;SDS011;2239;48.152;11.584;2022-08-19T15:05:52;1.23;;;0.80;;
4452;SDS011;2239;48.152;11.584;2022-08-19T15:08:18;1.03;;;0.80;;
4452;SDS011;2239;48.152;11.584;2022-08-19T15:10:48;1.47;;;1.10;;
4452;SDS011;2239;48.152;11.584;2022-08-19T15:13:14;1.00;;;0.80;;
4452;SDS011;2239;48.152;11.584;2022-08-19T15:15:39;1.90;;;0.90;;
4452;SDS011;2239;48.152;11.584;2022-08-19T15:18:05;1.77;;;1.13;;
4452;SDS011;2239;48.152;11.584;2022-08-19T15:20:30;2.00;;;1.00;;
4452;SDS011;2239;48.152;11.584;2022-08-19T15:22:56;1.77;;;1.03;;
4452;SDS011;2239;48.152;11.584;2022-08-19T15:25:23;2.60;;;1.43;;